LERS/REU METAR and TAF weather

Enter ICAO airport designator
Station Type Date Time Source
LERS METAR 2020/03/31 09:00 UTC NOAA

LERS 310900Z 07011KT 9999 SCT020 BKN025 11/06 Q1013


Station Type Date Time Source
LERS Decoded METAR 2020/03/31 09:00 UTC NOAA

Reus / Aeropuerto, Spain (LERS) 41-09N 001-10E 76M
Mar 31, 2020 - 05:00 AM EDT / 2020.03.31 0900 UTC
Wind: from the ENE (070 degrees) at 13 MPH (11 KT):0
Visibility: greater than 7 mile(s):0
Sky conditions: mostly cloudy
Temperature: 51 F (11 C)
Dew Point: 42 F (6 C)
Relative Humidity: 71%
Pressure (altimeter): 29.91 in. Hg (1013 hPa)
ob: LERS 310900Z 07011KT 9999 SCT020 BKN025 11/06 Q1013
cycle: 9

Station Type Date Time Source
LERS TAF 2020/03/31 09:31 UTC NOAA

TAF LERS 310800Z 3109/0109 04010KT 9999 SCT010 BKN020 TX15/3112Z TN09/0106Z
TEMPO 3115/0109 4000 SHRA FEW010TCU PROB40
TEMPO 0106/0109 05020G30KT 2000 TSRA BKN020CB

Example: see airport list